Reklama

Seznam meteostanic a jejich METAR

Vyhledat místa podle abecedy:
A B C D E F G H I J K L M N O P Q R S T U V W X Y Z

Filtrovat:

ID stanice:
a/nebo
Název místa (fulltext):
 
Místo (ID)Naposledy načteno 
Červená - Opava (Cervena/uL) 31.05.2020 04:00 UTC Zobrazit data
Místo: Červená - Opava
Teplota: 7 °C (pocitová: 0.2 °C)
Vítr: 6 m/s z(e) 320°
Počasí: skoro zataženo
Dohlednost: 35 km
Zákl. oblačnosti: 3/8 1230 m;4/8 1800 m
Vlhkost: 76%
České Budějovice (C.Budej/po) 31.05.2020 04:00 UTC Zobrazit data
Místo: České Budějovice
Teplota: 5 °C (pocitová: 16.2 °C)
Vítr: 0 m/s z(e) 0°
Počasí: skorojasno
Dohlednost: 27 km
Zákl. oblačnosti: 1/8 4200 m
Vlhkost: 93%
Cheb (Cheb) 31.05.2020 04:00 UTC Zobrazit data
Místo: Cheb
Teplota: 4 °C (pocitová: -0.8 °C)
Vítr: 2 m/s z(e) 190°
Počasí: zataženo
Dohlednost: 35 km
Zákl. oblačnosti: 6/8 6600 m;6/8 9000 m
Vlhkost: 87%
Chotusice - Čáslav (Caslav) 31.05.2020 04:00 UTC Zobrazit data
Místo: Chotusice - Čáslav
Teplota: 9 °C (pocitová: 4.7 °C)
Vítr: 3 m/s z(e) 280°
Počasí: zataženo
Dohlednost: 20 km
Zákl. oblačnosti: 8/8 3000 m
Vlhkost: 82%
Churáňov (Churanov) 31.05.2020 04:00 UTC Zobrazit data
Místo: Churáňov
Teplota: 4 °C (pocitová: 0.6 °C)
Vítr: 1 m/s z(e) 310°
Počasí: zataženo
Dohlednost: 35 km
Zákl. oblačnosti: 8/8 4800 m
Vlhkost: 75%
Cairo (HECA) 31.05.2020 04:00 UTC Zobrazit METAR
HECA 310400Z 02007KT CAVOK 18/12 Q1017 NOSIG
Canberra (YSCB) 31.05.2020 04:00 UTC Zobrazit METAR
YSCB 310400Z AUTO 33015KT 9999 // SCT044 BKN090 15/05 Q1014 FM0400 MOD TURB BLW 5000FT RMK USE TAF FOR ARRIVALS AFTER 0430Z
Caracas (SVMP) Zatím nenačteno  
Cayenne (SOCA) 31.05.2020 04:00 UTC Zobrazit METAR
SOCA 310400Z AUTO 00000KT 9999 SCT020 25/25 Q1013
Charlotte Amalie (TIST) 31.05.2020 03:53 UTC Zobrazit METAR
TIST 310353Z 09010KT 10SM CLR 27/23 A3002 RMK AO2 SLP166 T02720228 403060267 PNO
Chisinau (LUKK) 31.05.2020 04:00 UTC Zobrazit METAR
LUKK 310400Z 27011KT CAVOK 14/08 Q1007 R26/190095 NOSIG
Colombo (VCBI) 31.05.2020 04:10 UTC Zobrazit METAR
VCBI 310410Z 22011KT 9999 BKN018 30/27 Q1012 NOSIG
Conakry (GUCY) 30.05.2020 17:00 UTC Zobrazit METAR
GUCY 301700Z 27008KT 9999 SCT015 BKN110 31/26 Q1010 NOSIG
Constanta (LRCK) 31.05.2020 04:00 UTC Zobrazit METAR
LRCK 310400Z 22010KT CAVOK 12/09 Q1011 R36/CLRD// NOSIG
Constantine (DABC) 31.05.2020 04:00 UTC Zobrazit METAR
DABC 310400Z 03001KT 9999 FEW040 09/07 Q1017
Copenhagen (EKCH) 30.05.2020 17:50 UTC Zobrazit METAR
EKCH 301750Z AUTO 18009KT 9999 BKN075/// 14/07 Q1026 NOSIG
Cork (EICK) 31.05.2020 04:00 UTC Zobrazit METAR
EICK 310400Z 08006KT 9999 FEW045 12/08 Q1019 NOSIG
Cotonou (DBBB) 31.05.2020 04:00 UTC Zobrazit METAR
DBBB 310400Z VRB03KT 9999 FEW011 25/24 Q1012 NOSIG
Curacao Island (TNCC) 31.05.2020 04:00 UTC Zobrazit METAR
TNCC 310400Z 11011KT 9999 FEW017 27/24 Q1014 NOSIG
Reklama

Lunární kalendář

  • 05.06.Fáze měsíce uplnek
  • 13.06.Fáze měsíce posl_ctvrt
  • 21.06.Fáze měsíce nov
  • 28.06.Fáze měsíce prv_ctvrt



Reklama
Meteodomečky

Počasí na Váš email

Emaily jsou bez reklamy a bez spamu



Odhlásit newsletter

Reklama


Další české internetové stránky (nejen) o počasí najdete v katalogu TOPlist - weby o počasí nebo vyhledejte na internetu, co jste tu na 🌞 Slunečnu ⛅ zatím nenašli:

Reklama